sensor_id;sensor_type;location;lat;lon;timestamp;P1;durP1;ratioP1;P2;durP2;ratioP2
359;SDS011;168;48.872;9.226;2023-05-23T00:01:02;31.93;;;28.53;;
359;SDS011;168;48.872;9.226;2023-05-23T00:03:32;37.07;;;30.20;;
359;SDS011;168;48.872;9.226;2023-05-23T00:06:00;37.57;;;31.60;;
359;SDS011;168;48.872;9.226;2023-05-23T00:08:29;38.13;;;29.60;;
359;SDS011;168;48.872;9.226;2023-05-23T00:10:56;38.73;;;30.93;;
359;SDS011;168;48.872;9.226;2023-05-23T00:13:23;43.30;;;33.10;;
359;SDS011;168;48.872;9.226;2023-05-23T00:15:51;46.47;;;35.03;;
359;SDS011;168;48.872;9.226;2023-05-23T00:18:18;47.17;;;36.40;;
359;SDS011;168;48.872;9.226;2023-05-23T00:20:47;46.53;;;37.70;;
359;SDS011;168;48.872;9.226;2023-05-23T00:23:16;49.87;;;38.70;;
359;SDS011;168;48.872;9.226;2023-05-23T00:25:45;50.10;;;40.23;;
359;SDS011;168;48.872;9.226;2023-05-23T00:28:17;51.00;;;38.10;;
359;SDS011;168;48.872;9.226;2023-05-23T00:30:44;49.60;;;39.20;;
359;SDS011;168;48.872;9.226;2023-05-23T00:33:13;52.77;;;39.10;;
359;SDS011;168;48.872;9.226;2023-05-23T00:35:40;57.20;;;43.63;;
359;SDS011;168;48.872;9.226;2023-05-23T00:38:09;63.43;;;44.27;;
359;SDS011;168;48.872;9.226;2023-05-23T00:40:37;57.60;;;42.03;;
359;SDS011;168;48.872;9.226;2023-05-23T00:43:04;63.27;;;45.60;;
359;SDS011;168;48.872;9.226;2023-05-23T00:45:32;73.40;;;46.30;;
359;SDS011;168;48.872;9.226;2023-05-23T00:48:00;66.37;;;46.03;;
359;SDS011;168;48.872;9.226;2023-05-23T00:50:28;61.30;;;45.67;;
359;SDS011;168;48.872;9.226;2023-05-23T00:52:56;60.37;;;42.87;;
359;SDS011;168;48.872;9.226;2023-05-23T00:55:27;63.63;;;48.30;;
359;SDS011;168;48.872;9.226;2023-05-23T00:57:55;66.80;;;45.83;;
359;SDS011;168;48.872;9.226;2023-05-23T01:00:23;64.10;;;47.37;;
359;SDS011;168;48.872;9.226;2023-05-23T01:02:51;67.40;;;47.20;;
359;SDS011;168;48.872;9.226;2023-05-23T01:05:19;64.80;;;48.00;;
359;SDS011;168;48.872;9.226;2023-05-23T01:07:49;68.73;;;48.07;;
359;SDS011;168;48.872;9.226;2023-05-23T01:10:18;68.33;;;47.77;;
359;SDS011;168;48.872;9.226;2023-05-23T01:12:57;74.00;;;52.80;;
359;SDS011;168;48.872;9.226;2023-05-23T01:15:34;67.37;;;49.50;;
359;SDS011;168;48.872;9.226;2023-05-23T01:18:06;69.30;;;50.07;;
359;SDS011;168;48.872;9.226;2023-05-23T01:20:37;65.73;;;49.77;;
359;SDS011;168;48.872;9.226;2023-05-23T01:23:18;67.10;;;48.40;;
359;SDS011;168;48.872;9.226;2023-05-23T01:26:03;69.43;;;50.73;;
359;SDS011;168;48.872;9.226;2023-05-23T01:28:46;74.90;;;51.13;;
359;SDS011;168;48.872;9.226;2023-05-23T01:31:17;74.83;;;51.70;;
359;SDS011;168;48.872;9.226;2023-05-23T01:33:47;74.63;;;53.77;;
359;SDS011;168;48.872;9.226;2023-05-23T01:36:17;73.13;;;53.97;;
359;SDS011;168;48.872;9.226;2023-05-23T01:38:46;70.13;;;52.40;;
359;SDS011;168;48.872;9.226;2023-05-23T01:41:13;78.47;;;55.27;;
359;SDS011;168;48.872;9.226;2023-05-23T01:43:41;77.90;;;54.30;;
359;SDS011;168;48.872;9.226;2023-05-23T01:46:09;78.70;;;54.57;;
359;SDS011;168;48.872;9.226;2023-05-23T01:48:37;75.67;;;54.60;;
359;SDS011;168;48.872;9.226;2023-05-23T01:51:06;82.10;;;55.27;;
359;SDS011;168;48.872;9.226;2023-05-23T01:53:34;74.23;;;53.93;;
359;SDS011;168;48.872;9.226;2023-05-23T01:56:02;81.97;;;57.17;;
359;SDS011;168;48.872;9.226;2023-05-23T01:58:29;77.57;;;53.63;;
359;SDS011;168;48.872;9.226;2023-05-23T02:00:57;78.97;;;57.60;;
359;SDS011;168;48.872;9.226;2023-05-23T02:03:26;83.90;;;59.40;;
359;SDS011;168;48.872;9.226;2023-05-23T02:05:53;88.27;;;58.60;;
359;SDS011;168;48.872;9.226;2023-05-23T02:08:21;78.60;;;58.87;;
359;SDS011;168;48.872;9.226;2023-05-23T02:10:48;82.93;;;59.50;;
359;SDS011;168;48.872;9.226;2023-05-23T02:13:16;84.57;;;59.73;;
359;SDS011;168;48.872;9.226;2023-05-23T02:15:43;80.40;;;58.03;;
359;SDS011;168;48.872;9.226;2023-05-23T02:18:11;77.67;;;57.53;;
359;SDS011;168;48.872;9.226;2023-05-23T02:20:39;82.33;;;58.57;;
359;SDS011;168;48.872;9.226;2023-05-23T02:23:07;83.97;;;58.50;;
359;SDS011;168;48.872;9.226;2023-05-23T02:25:34;83.37;;;57.80;;
359;SDS011;168;48.872;9.226;2023-05-23T02:28:01;85.23;;;60.30;;
359;SDS011;168;48.872;9.226;2023-05-23T02:30:29;80.90;;;58.53;;
359;SDS011;168;48.872;9.226;2023-05-23T02:32:56;80.97;;;59.73;;
359;SDS011;168;48.872;9.226;2023-05-23T02:35:23;85.53;;;59.70;;
359;SDS011;168;48.872;9.226;2023-05-23T02:37:52;81.30;;;58.60;;
359;SDS011;168;48.872;9.226;2023-05-23T02:40:19;83.73;;;60.40;;
359;SDS011;168;48.872;9.226;2023-05-23T02:42:47;83.60;;;62.77;;
359;SDS011;168;48.872;9.226;2023-05-23T02:45:15;81.53;;;58.73;;
359;SDS011;168;48.872;9.226;2023-05-23T02:47:43;83.07;;;61.07;;
359;SDS011;168;48.872;9.226;2023-05-23T02:50:10;81.50;;;60.10;;
359;SDS011;168;48.872;9.226;2023-05-23T02:52:37;73.77;;;59.33;;
359;SDS011;168;48.872;9.226;2023-05-23T02:55:08;76.10;;;59.67;;
359;SDS011;168;48.872;9.226;2023-05-23T02:57:35;76.20;;;58.77;;
359;SDS011;168;48.872;9.226;2023-05-23T03:00:03;77.20;;;59.27;;
359;SDS011;168;48.872;9.226;2023-05-23T03:02:31;87.30;;;61.07;;
359;SDS011;168;48.872;9.226;2023-05-23T03:04:58;81.73;;;61.47;;
359;SDS011;168;48.872;9.226;2023-05-23T03:07:26;76.43;;;58.27;;
359;SDS011;168;48.872;9.226;2023-05-23T03:09:54;80.83;;;60.67;;
359;SDS011;168;48.872;9.226;2023-05-23T03:12:23;79.57;;;58.17;;
359;SDS011;168;48.872;9.226;2023-05-23T03:14:50;75.20;;;60.53;;
359;SDS011;168;48.872;9.226;2023-05-23T03:17:17;73.20;;;57.47;;
359;SDS011;168;48.872;9.226;2023-05-23T03:19:45;80.33;;;56.87;;
359;SDS011;168;48.872;9.226;2023-05-23T03:22:12;73.93;;;57.73;;
359;SDS011;168;48.872;9.226;2023-05-23T03:24:40;77.03;;;59.60;;
359;SDS011;168;48.872;9.226;2023-05-23T03:27:07;78.57;;;57.90;;
359;SDS011;168;48.872;9.226;2023-05-23T03:29:36;72.83;;;58.00;;
359;SDS011;168;48.872;9.226;2023-05-23T03:32:03;68.30;;;54.60;;
359;SDS011;168;48.872;9.226;2023-05-23T03:34:31;74.60;;;57.57;;
359;SDS011;168;48.872;9.226;2023-05-23T03:37:01;70.77;;;55.53;;
359;SDS011;168;48.872;9.226;2023-05-23T03:39:28;70.40;;;54.83;;
359;SDS011;168;48.872;9.226;2023-05-23T03:41:56;67.47;;;55.83;;
359;SDS011;168;48.872;9.226;2023-05-23T03:44:23;64.67;;;54.47;;
359;SDS011;168;48.872;9.226;2023-05-23T03:46:52;71.70;;;56.60;;
359;SDS011;168;48.872;9.226;2023-05-23T03:49:19;70.97;;;55.30;;
359;SDS011;168;48.872;9.226;2023-05-23T03:51:46;69.63;;;56.20;;
359;SDS011;168;48.872;9.226;2023-05-23T03:54:14;72.17;;;55.90;;
359;SDS011;168;48.872;9.226;2023-05-23T03:56:42;68.40;;;54.53;;
359;SDS011;168;48.872;9.226;2023-05-23T03:59:09;71.23;;;55.23;;
359;SDS011;168;48.872;9.226;2023-05-23T04:01:36;68.03;;;53.60;;
359;SDS011;168;48.872;9.226;2023-05-23T04:04:05;64.90;;;53.80;;
359;SDS011;168;48.872;9.226;2023-05-23T04:06:33;65.23;;;52.50;;
359;SDS011;168;48.872;9.226;2023-05-23T04:09:00;72.00;;;51.67;;
359;SDS011;168;48.872;9.226;2023-05-23T04:11:27;65.17;;;52.60;;
359;SDS011;168;48.872;9.226;2023-05-23T04:13:55;64.70;;;51.90;;
359;SDS011;168;48.872;9.226;2023-05-23T04:16:23;70.00;;;53.80;;
359;SDS011;168;48.872;9.226;2023-05-23T04:18:50;64.03;;;52.70;;
359;SDS011;168;48.872;9.226;2023-05-23T04:21:20;64.93;;;52.70;;
359;SDS011;168;48.872;9.226;2023-05-23T04:23:47;66.10;;;52.27;;
359;SDS011;168;48.872;9.226;2023-05-23T04:26:15;63.10;;;50.13;;
359;SDS011;168;48.872;9.226;2023-05-23T04:28:42;60.57;;;51.47;;
359;SDS011;168;48.872;9.226;2023-05-23T04:31:13;63.80;;;52.47;;
359;SDS011;168;48.872;9.226;2023-05-23T04:33:40;58.33;;;49.17;;
359;SDS011;168;48.872;9.226;2023-05-23T04:36:08;62.37;;;49.00;;
359;SDS011;168;48.872;9.226;2023-05-23T04:38:37;59.50;;;49.27;;
359;SDS011;168;48.872;9.226;2023-05-23T04:41:05;64.50;;;50.17;;
359;SDS011;168;48.872;9.226;2023-05-23T04:43:37;56.87;;;47.97;;
359;SDS011;168;48.872;9.226;2023-05-23T04:46:07;55.57;;;48.80;;
359;SDS011;168;48.872;9.226;2023-05-23T04:48:35;59.53;;;49.70;;
359;SDS011;168;48.872;9.226;2023-05-23T04:51:03;55.87;;;47.47;;
359;SDS011;168;48.872;9.226;2023-05-23T04:53:33;57.23;;;46.13;;
359;SDS011;168;48.872;9.226;2023-05-23T04:56:02;55.77;;;49.60;;
359;SDS011;168;48.872;9.226;2023-05-23T04:58:30;57.23;;;48.93;;
359;SDS011;168;48.872;9.226;2023-05-23T05:00:58;58.33;;;47.97;;
359;SDS011;168;48.872;9.226;2023-05-23T05:03:26;54.67;;;47.47;;
359;SDS011;168;48.872;9.226;2023-05-23T05:05:56;57.27;;;47.10;;
359;SDS011;168;48.872;9.226;2023-05-23T05:08:25;53.73;;;47.07;;
359;SDS011;168;48.872;9.226;2023-05-23T05:10:53;55.47;;;49.40;;
359;SDS011;168;48.872;9.226;2023-05-23T05:13:21;56.40;;;47.10;;
359;SDS011;168;48.872;9.226;2023-05-23T05:15:49;60.10;;;48.23;;
359;SDS011;168;48.872;9.226;2023-05-23T05:18:17;53.87;;;45.57;;
359;SDS011;168;48.872;9.226;2023-05-23T05:20:44;54.10;;;47.27;;
359;SDS011;168;48.872;9.226;2023-05-23T05:23:12;54.80;;;46.20;;
359;SDS011;168;48.872;9.226;2023-05-23T05:25:39;55.77;;;46.77;;
359;SDS011;168;48.872;9.226;2023-05-23T05:28:07;52.37;;;44.30;;
359;SDS011;168;48.872;9.226;2023-05-23T05:30:35;51.43;;;44.37;;
359;SDS011;168;48.872;9.226;2023-05-23T05:33:03;52.67;;;45.43;;
359;SDS011;168;48.872;9.226;2023-05-23T05:35:32;51.57;;;44.27;;
359;SDS011;168;48.872;9.226;2023-05-23T05:38:02;49.17;;;43.87;;
359;SDS011;168;48.872;9.226;2023-05-23T05:40:31;52.30;;;46.03;;
359;SDS011;168;48.872;9.226;2023-05-23T05:43:00;53.13;;;46.43;;
359;SDS011;168;48.872;9.226;2023-05-23T05:45:28;52.30;;;44.80;;
359;SDS011;168;48.872;9.226;2023-05-23T05:47:57;50.13;;;44.97;;
359;SDS011;168;48.872;9.226;2023-05-23T05:50:25;50.77;;;43.07;;
359;SDS011;168;48.872;9.226;2023-05-23T05:52:53;48.73;;;43.50;;
359;SDS011;168;48.872;9.226;2023-05-23T05:55:21;47.40;;;42.20;;
359;SDS011;168;48.872;9.226;2023-05-23T05:57:51;49.23;;;43.80;;
359;SDS011;168;48.872;9.226;2023-05-23T06:00:20;47.67;;;42.47;;
359;SDS011;168;48.872;9.226;2023-05-23T06:02:48;46.00;;;41.07;;
359;SDS011;168;48.872;9.226;2023-05-23T06:05:17;49.83;;;44.50;;
359;SDS011;168;48.872;9.226;2023-05-23T06:07:46;47.17;;;41.80;;
359;SDS011;168;48.872;9.226;2023-05-23T06:10:14;47.53;;;42.63;;
359;SDS011;168;48.872;9.226;2023-05-23T06:12:42;45.87;;;40.83;;
359;SDS011;168;48.872;9.226;2023-05-23T06:15:10;45.67;;;40.90;;
359;SDS011;168;48.872;9.226;2023-05-23T06:17:39;48.00;;;43.00;;
359;SDS011;168;48.872;9.226;2023-05-23T06:20:06;44.20;;;39.53;;
359;SDS011;168;48.872;9.226;2023-05-23T06:22:35;43.63;;;39.00;;
359;SDS011;168;48.872;9.226;2023-05-23T06:25:03;45.77;;;41.17;;
359;SDS011;168;48.872;9.226;2023-05-23T06:27:32;42.70;;;38.40;;
359;SDS011;168;48.872;9.226;2023-05-23T06:30:01;41.93;;;37.53;;
359;SDS011;168;48.872;9.226;2023-05-23T06:32:30;45.17;;;40.57;;
359;SDS011;168;48.872;9.226;2023-05-23T06:35:00;43.17;;;39.03;;
359;SDS011;168;48.872;9.226;2023-05-23T06:37:30;42.03;;;37.50;;
359;SDS011;168;48.872;9.226;2023-05-23T06:40:02;43.87;;;39.23;;
359;SDS011;168;48.872;9.226;2023-05-23T06:42:32;43.07;;;38.60;;
359;SDS011;168;48.872;9.226;2023-05-23T06:45:00;44.33;;;39.83;;
359;SDS011;168;48.872;9.226;2023-05-23T06:47:28;41.77;;;37.33;;
359;SDS011;168;48.872;9.226;2023-05-23T06:49:55;42.40;;;38.10;;
359;SDS011;168;48.872;9.226;2023-05-23T06:52:22;42.97;;;38.60;;
359;SDS011;168;48.872;9.226;2023-05-23T06:54:50;45.60;;;40.90;;
359;SDS011;168;48.872;9.226;2023-05-23T06:57:19;44.90;;;40.00;;
359;SDS011;168;48.872;9.226;2023-05-23T06:59:47;44.83;;;40.23;;
359;SDS011;168;48.872;9.226;2023-05-23T07:02:15;45.80;;;40.83;;
359;SDS011;168;48.872;9.226;2023-05-23T07:04:42;46.00;;;41.30;;
359;SDS011;168;48.872;9.226;2023-05-23T07:07:10;50.27;;;44.87;;
359;SDS011;168;48.872;9.226;2023-05-23T07:09:37;46.47;;;40.80;;
359;SDS011;168;48.872;9.226;2023-05-23T07:12:05;40.80;;;36.50;;
359;SDS011;168;48.872;9.226;2023-05-23T07:14:34;39.53;;;35.27;;
359;SDS011;168;48.872;9.226;2023-05-23T07:17:02;39.60;;;35.33;;
359;SDS011;168;48.872;9.226;2023-05-23T07:19:30;38.10;;;34.47;;
359;SDS011;168;48.872;9.226;2023-05-23T07:21:57;37.43;;;33.70;;
359;SDS011;168;48.872;9.226;2023-05-23T07:24:26;36.37;;;32.87;;
359;SDS011;168;48.872;9.226;2023-05-23T07:26:54;34.63;;;31.03;;
359;SDS011;168;48.872;9.226;2023-05-23T07:29:22;34.17;;;30.97;;
359;SDS011;168;48.872;9.226;2023-05-23T07:31:51;34.37;;;30.97;;
359;SDS011;168;48.872;9.226;2023-05-23T07:34:19;31.20;;;27.90;;
359;SDS011;168;48.872;9.226;2023-05-23T07:36:46;29.67;;;26.70;;
359;SDS011;168;48.872;9.226;2023-05-23T07:39:14;31.50;;;28.20;;
359;SDS011;168;48.872;9.226;2023-05-23T07:41:46;31.00;;;27.90;;
359;SDS011;168;48.872;9.226;2023-05-23T07:44:14;31.73;;;28.53;;
359;SDS011;168;48.872;9.226;2023-05-23T07:46:43;32.60;;;29.40;;
359;SDS011;168;48.872;9.226;2023-05-23T07:49:15;32.00;;;28.80;;
359;SDS011;168;48.872;9.226;2023-05-23T07:51:43;33.10;;;29.77;;
359;SDS011;168;48.872;9.226;2023-05-23T07:54:10;32.60;;;29.17;;
359;SDS011;168;48.872;9.226;2023-05-23T07:56:38;31.80;;;28.80;;
359;SDS011;168;48.872;9.226;2023-05-23T07:59:06;30.07;;;27.03;;
359;SDS011;168;48.872;9.226;2023-05-23T08:01:33;32.20;;;29.10;;
359;SDS011;168;48.872;9.226;2023-05-23T08:04:01;31.10;;;27.90;;
359;SDS011;168;48.872;9.226;2023-05-23T08:06:30;31.30;;;28.20;;
359;SDS011;168;48.872;9.226;2023-05-23T08:08:58;30.67;;;27.67;;
359;SDS011;168;48.872;9.226;2023-05-23T08:11:25;29.10;;;26.27;;
359;SDS011;168;48.872;9.226;2023-05-23T08:13:53;27.53;;;24.80;;
359;SDS011;168;48.872;9.226;2023-05-23T08:16:22;29.43;;;26.60;;
359;SDS011;168;48.872;9.226;2023-05-23T08:18:49;28.57;;;25.97;;
359;SDS011;168;48.872;9.226;2023-05-23T08:21:17;30.13;;;27.13;;
359;SDS011;168;48.872;9.226;2023-05-23T08:23:46;27.90;;;25.20;;
359;SDS011;168;48.872;9.226;2023-05-23T08:26:14;26.10;;;23.57;;
359;SDS011;168;48.872;9.226;2023-05-23T08:28:41;26.70;;;24.17;;
359;SDS011;168;48.872;9.226;2023-05-23T08:31:09;25.10;;;22.50;;
359;SDS011;168;48.872;9.226;2023-05-23T08:33:36;28.27;;;25.50;;
359;SDS011;168;48.872;9.226;2023-05-23T08:36:04;26.00;;;23.63;;
359;SDS011;168;48.872;9.226;2023-05-23T08:38:31;27.43;;;24.73;;
359;SDS011;168;48.872;9.226;2023-05-23T08:41:00;26.13;;;23.73;;
359;SDS011;168;48.872;9.226;2023-05-23T08:43:28;25.63;;;23.17;;
359;SDS011;168;48.872;9.226;2023-05-23T08:45:55;26.23;;;23.77;;
359;SDS011;168;48.872;9.226;2023-05-23T08:48:23;24.40;;;22.10;;
359;SDS011;168;48.872;9.226;2023-05-23T08:50:53;25.13;;;22.73;;
359;SDS011;168;48.872;9.226;2023-05-23T08:53:21;24.83;;;22.30;;
359;SDS011;168;48.872;9.226;2023-05-23T08:55:54;23.67;;;21.57;;
359;SDS011;168;48.872;9.226;2023-05-23T08:58:31;23.43;;;21.37;;
359;SDS011;168;48.872;9.226;2023-05-23T09:01:06;22.57;;;20.47;;
359;SDS011;168;48.872;9.226;2023-05-23T09:03:35;22.10;;;20.00;;
359;SDS011;168;48.872;9.226;2023-05-23T09:06:07;22.87;;;20.80;;
359;SDS011;168;48.872;9.226;2023-05-23T09:08:35;22.30;;;20.10;;
359;SDS011;168;48.872;9.226;2023-05-23T09:11:04;22.17;;;20.00;;
359;SDS011;168;48.872;9.226;2023-05-23T09:13:38;22.50;;;20.47;;
359;SDS011;168;48.872;9.226;2023-05-23T09:16:07;22.50;;;20.47;;
359;SDS011;168;48.872;9.226;2023-05-23T09:18:36;22.77;;;20.57;;
359;SDS011;168;48.872;9.226;2023-05-23T09:21:05;22.53;;;20.47;;
359;SDS011;168;48.872;9.226;2023-05-23T09:23:34;22.93;;;20.83;;
359;SDS011;168;48.872;9.226;2023-05-23T09:26:16;22.23;;;20.23;;
359;SDS011;168;48.872;9.226;2023-05-23T09:28:44;21.83;;;19.73;;
359;SDS011;168;48.872;9.226;2023-05-23T09:31:13;22.00;;;20.00;;
359;SDS011;168;48.872;9.226;2023-05-23T09:33:42;21.30;;;19.43;;
359;SDS011;168;48.872;9.226;2023-05-23T09:36:12;23.67;;;21.30;;
359;SDS011;168;48.872;9.226;2023-05-23T09:38:52;22.80;;;20.60;;
359;SDS011;168;48.872;9.226;2023-05-23T09:41:19;21.47;;;19.47;;
359;SDS011;168;48.872;9.226;2023-05-23T09:43:51;21.07;;;18.97;;
359;SDS011;168;48.872;9.226;2023-05-23T09:46:20;20.33;;;18.33;;
359;SDS011;168;48.872;9.226;2023-05-23T09:48:47;20.30;;;18.30;;
359;SDS011;168;48.872;9.226;2023-05-23T09:51:17;19.50;;;17.60;;
359;SDS011;168;48.872;9.226;2023-05-23T09:53:45;19.53;;;17.70;;
359;SDS011;168;48.872;9.226;2023-05-23T09:56:12;20.30;;;17.87;;
359;SDS011;168;48.872;9.226;2023-05-23T09:58:43;18.63;;;16.73;;
359;SDS011;168;48.872;9.226;2023-05-23T10:01:14;19.80;;;18.00;;
359;SDS011;168;48.872;9.226;2023-05-23T10:03:43;17.77;;;16.27;;
359;SDS011;168;48.872;9.226;2023-05-23T10:06:15;17.83;;;16.10;;
359;SDS011;168;48.872;9.226;2023-05-23T10:08:53;18.57;;;16.77;;
359;SDS011;168;48.872;9.226;2023-05-23T10:11:42;17.20;;;15.50;;
359;SDS011;168;48.872;9.226;2023-05-23T10:14:42;17.30;;;15.80;;
359;SDS011;168;48.872;9.226;2023-05-23T10:17:19;17.73;;;16.13;;
359;SDS011;168;48.872;9.226;2023-05-23T10:19:57;16.60;;;15.20;;
359;SDS011;168;48.872;9.226;2023-05-23T10:22:27;16.50;;;15.20;;
359;SDS011;168;48.872;9.226;2023-05-23T10:24:56;17.13;;;15.40;;
359;SDS011;168;48.872;9.226;2023-05-23T10:27:23;16.00;;;14.70;;
359;SDS011;168;48.872;9.226;2023-05-23T10:29:51;16.60;;;15.10;;
359;SDS011;168;48.872;9.226;2023-05-23T10:32:20;16.27;;;14.77;;
359;SDS011;168;48.872;9.226;2023-05-23T10:34:52;16.43;;;14.93;;
359;SDS011;168;48.872;9.226;2023-05-23T10:37:26;15.03;;;13.57;;
359;SDS011;168;48.872;9.226;2023-05-23T10:39:59;15.97;;;14.67;;
359;SDS011;168;48.872;9.226;2023-05-23T10:42:34;15.53;;;14.20;;
359;SDS011;168;48.872;9.226;2023-05-23T10:45:14;15.00;;;13.50;;
359;SDS011;168;48.872;9.226;2023-05-23T10:47:45;14.37;;;13.17;;
359;SDS011;168;48.872;9.226;2023-05-23T10:50:13;14.53;;;13.10;;
359;SDS011;168;48.872;9.226;2023-05-23T10:52:41;15.43;;;13.87;;
359;SDS011;168;48.872;9.226;2023-05-23T10:55:12;15.03;;;13.57;;
359;SDS011;168;48.872;9.226;2023-05-23T10:57:42;13.70;;;12.57;;
359;SDS011;168;48.872;9.226;2023-05-23T11:00:13;13.27;;;11.97;;
359;SDS011;168;48.872;9.226;2023-05-23T11:02:46;14.70;;;13.40;;
359;SDS011;168;48.872;9.226;2023-05-23T11:05:20;13.83;;;12.40;;
359;SDS011;168;48.872;9.226;2023-05-23T11:10:53;13.47;;;11.97;;
359;SDS011;168;48.872;9.226;2023-05-23T11:13:24;12.70;;;11.50;;
359;SDS011;168;48.872;9.226;2023-05-23T11:15:52;12.77;;;11.67;;
359;SDS011;168;48.872;9.226;2023-05-23T11:18:21;12.20;;;10.30;;
359;SDS011;168;48.872;9.226;2023-05-23T11:20:50;11.00;;;10.10;;
359;SDS011;168;48.872;9.226;2023-05-23T11:23:18;12.07;;;11.00;;
359;SDS011;168;48.872;9.226;2023-05-23T11:25:47;11.63;;;10.73;;
359;SDS011;168;48.872;9.226;2023-05-23T11:28:16;11.33;;;10.33;;
359;SDS011;168;48.872;9.226;2023-05-23T11:30:46;11.27;;;10.17;;
359;SDS011;168;48.872;9.226;2023-05-23T11:33:15;9.93;;;9.13;;
359;SDS011;168;48.872;9.226;2023-05-23T11:35:48;10.47;;;9.53;;
359;SDS011;168;48.872;9.226;2023-05-23T11:38:17;11.43;;;10.43;;
359;SDS011;168;48.872;9.226;2023-05-23T11:40:46;11.10;;;10.20;;
359;SDS011;168;48.872;9.226;2023-05-23T11:43:14;12.90;;;11.70;;
359;SDS011;168;48.872;9.226;2023-05-23T11:45:44;13.70;;;12.50;;
359;SDS011;168;48.872;9.226;2023-05-23T11:48:12;12.43;;;11.40;;
359;SDS011;168;48.872;9.226;2023-05-23T11:50:44;11.80;;;10.70;;
359;SDS011;168;48.872;9.226;2023-05-23T11:53:16;10.83;;;9.93;;
359;SDS011;168;48.872;9.226;2023-05-23T11:55:49;11.63;;;10.63;;
359;SDS011;168;48.872;9.226;2023-05-23T11:58:18;12.90;;;11.90;;
359;SDS011;168;48.872;9.226;2023-05-23T12:00:46;12.50;;;11.30;;
359;SDS011;168;48.872;9.226;2023-05-23T12:03:13;12.33;;;11.33;;
359;SDS011;168;48.872;9.226;2023-05-23T12:05:42;11.50;;;10.50;;
359;SDS011;168;48.872;9.226;2023-05-23T12:08:10;11.27;;;10.37;;
359;SDS011;168;48.872;9.226;2023-05-23T12:10:48;12.27;;;11.23;;
359;SDS011;168;48.872;9.226;2023-05-23T12:13:17;11.53;;;10.63;;
359;SDS011;168;48.872;9.226;2023-05-23T12:15:45;11.00;;;10.10;;
359;SDS011;168;48.872;9.226;2023-05-23T12:18:14;10.73;;;9.83;;
359;SDS011;168;48.872;9.226;2023-05-23T12:20:44;13.07;;;11.87;;
359;SDS011;168;48.872;9.226;2023-05-23T12:23:17;10.87;;;9.90;;
359;SDS011;168;48.872;9.226;2023-05-23T12:25:49;10.40;;;9.57;;
359;SDS011;168;48.872;9.226;2023-05-23T12:28:18;9.80;;;9.00;;
359;SDS011;168;48.872;9.226;2023-05-23T12:30:47;9.70;;;8.70;;
359;SDS011;168;48.872;9.226;2023-05-23T12:33:17;9.63;;;8.80;;
359;SDS011;168;48.872;9.226;2023-05-23T12:35:45;8.90;;;8.20;;
359;SDS011;168;48.872;9.226;2023-05-23T12:38:15;10.37;;;9.57;;
359;SDS011;168;48.872;9.226;2023-05-23T12:40:43;9.40;;;8.60;;
359;SDS011;168;48.872;9.226;2023-05-23T12:43:14;10.03;;;9.23;;
359;SDS011;168;48.872;9.226;2023-05-23T12:45:41;10.07;;;9.27;;
359;SDS011;168;48.872;9.226;2023-05-23T12:48:08;9.80;;;9.07;;
359;SDS011;168;48.872;9.226;2023-05-23T12:50:36;10.37;;;9.50;;
359;SDS011;168;48.872;9.226;2023-05-23T12:53:03;10.30;;;9.50;;
359;SDS011;168;48.872;9.226;2023-05-23T12:55:30;9.37;;;8.53;;
359;SDS011;168;48.872;9.226;2023-05-23T12:57:58;9.80;;;8.80;;
359;SDS011;168;48.872;9.226;2023-05-23T13:00:27;8.50;;;7.80;;
359;SDS011;168;48.872;9.226;2023-05-23T13:02:54;10.37;;;9.13;;
359;SDS011;168;48.872;9.226;2023-05-23T13:05:21;9.30;;;8.47;;
359;SDS011;168;48.872;9.226;2023-05-23T13:07:49;8.83;;;8.13;;
359;SDS011;168;48.872;9.226;2023-05-23T13:10:16;9.47;;;8.67;;
359;SDS011;168;48.872;9.226;2023-05-23T13:12:44;7.30;;;6.80;;
359;SDS011;168;48.872;9.226;2023-05-23T13:15:12;10.90;;;7.33;;
359;SDS011;168;48.872;9.226;2023-05-23T13:17:41;7.50;;;6.80;;
359;SDS011;168;48.872;9.226;2023-05-23T13:20:09;6.47;;;5.97;;
359;SDS011;168;48.872;9.226;2023-05-23T13:22:38;9.40;;;6.50;;
359;SDS011;168;48.872;9.226;2023-05-23T13:25:06;7.67;;;6.47;;
359;SDS011;168;48.872;9.226;2023-05-23T13:27:34;6.90;;;6.40;;
359;SDS011;168;48.872;9.226;2023-05-23T13:30:01;7.83;;;7.23;;
359;SDS011;168;48.872;9.226;2023-05-23T13:32:29;8.13;;;7.53;;
359;SDS011;168;48.872;9.226;2023-05-23T13:35:01;8.33;;;7.70;;
359;SDS011;168;48.872;9.226;2023-05-23T13:37:28;7.80;;;7.10;;
359;SDS011;168;48.872;9.226;2023-05-23T13:39:56;8.43;;;7.67;;
359;SDS011;168;48.872;9.226;2023-05-23T13:42:23;6.73;;;6.13;;
359;SDS011;168;48.872;9.226;2023-05-23T13:44:50;6.50;;;5.90;;
359;SDS011;168;48.872;9.226;2023-05-23T13:47:18;7.87;;;7.27;;
359;SDS011;168;48.872;9.226;2023-05-23T13:49:46;7.60;;;7.00;;
359;SDS011;168;48.872;9.226;2023-05-23T13:52:15;6.53;;;6.03;;
359;SDS011;168;48.872;9.226;2023-05-23T13:54:42;6.40;;;5.80;;
359;SDS011;168;48.872;9.226;2023-05-23T13:57:09;6.60;;;6.10;;
359;SDS011;168;48.872;9.226;2023-05-23T13:59:37;5.73;;;5.33;;
359;SDS011;168;48.872;9.226;2023-05-23T14:02:04;6.40;;;5.90;;
359;SDS011;168;48.872;9.226;2023-05-23T14:04:32;6.63;;;6.13;;
359;SDS011;168;48.872;9.226;2023-05-23T14:06:59;6.50;;;6.00;;
359;SDS011;168;48.872;9.226;2023-05-23T14:09:28;6.00;;;5.60;;
359;SDS011;168;48.872;9.226;2023-05-23T14:12:07;5.60;;;5.20;;
359;SDS011;168;48.872;9.226;2023-05-23T14:14:35;5.00;;;4.70;;
359;SDS011;168;48.872;9.226;2023-05-23T14:17:02;6.87;;;5.53;;
359;SDS011;168;48.872;9.226;2023-05-23T14:19:30;5.90;;;5.40;;
359;SDS011;168;48.872;9.226;2023-05-23T14:21:57;6.13;;;5.63;;
359;SDS011;168;48.872;9.226;2023-05-23T14:24:25;5.80;;;5.30;;
359;SDS011;168;48.872;9.226;2023-05-23T14:26:54;5.97;;;5.47;;
359;SDS011;168;48.872;9.226;2023-05-23T14:29:22;5.40;;;4.90;;
359;SDS011;168;48.872;9.226;2023-05-23T14:31:49;5.33;;;4.93;;
359;SDS011;168;48.872;9.226;2023-05-23T14:34:16;5.20;;;4.90;;
359;SDS011;168;48.872;9.226;2023-05-23T14:36:44;6.03;;;5.50;;
359;SDS011;168;48.872;9.226;2023-05-23T14:39:11;10.60;;;5.80;;
359;SDS011;168;48.872;9.226;2023-05-23T14:41:38;6.53;;;5.93;;
359;SDS011;168;48.872;9.226;2023-05-23T14:44:07;5.90;;;5.30;;
359;SDS011;168;48.872;9.226;2023-05-23T14:46:34;5.37;;;5.03;;
359;SDS011;168;48.872;9.226;2023-05-23T14:49:02;5.90;;;5.40;;
359;SDS011;168;48.872;9.226;2023-05-23T14:51:29;5.50;;;5.10;;
359;SDS011;168;48.872;9.226;2023-05-23T14:53:57;6.00;;;5.60;;
359;SDS011;168;48.872;9.226;2023-05-23T14:56:24;7.10;;;5.57;;
359;SDS011;168;48.872;9.226;2023-05-23T14:58:52;5.50;;;5.10;;
359;SDS011;168;48.872;9.226;2023-05-23T15:01:23;6.23;;;5.83;;
359;SDS011;168;48.872;9.226;2023-05-23T15:03:50;7.10;;;5.90;;
359;SDS011;168;48.872;9.226;2023-05-23T15:06:18;5.73;;;5.23;;
359;SDS011;168;48.872;9.226;2023-05-23T15:08:45;6.00;;;5.53;;
359;SDS011;168;48.872;9.226;2023-05-23T15:11:12;5.00;;;4.70;;
359;SDS011;168;48.872;9.226;2023-05-23T15:13:39;6.40;;;5.80;;
359;SDS011;168;48.872;9.226;2023-05-23T15:16:07;5.00;;;4.70;;
359;SDS011;168;48.872;9.226;2023-05-23T15:18:35;5.10;;;4.60;;
359;SDS011;168;48.872;9.226;2023-05-23T15:21:05;5.13;;;4.70;;
359;SDS011;168;48.872;9.226;2023-05-23T15:23:32;5.77;;;5.17;;
359;SDS011;168;48.872;9.226;2023-05-23T15:25:59;6.00;;;5.60;;
359;SDS011;168;48.872;9.226;2023-05-23T15:28:27;5.97;;;5.47;;
359;SDS011;168;48.872;9.226;2023-05-23T15:30:54;6.27;;;5.77;;
359;SDS011;168;48.872;9.226;2023-05-23T15:33:23;6.80;;;6.20;;
359;SDS011;168;48.872;9.226;2023-05-23T15:35:52;8.90;;;7.20;;